createdAt,value
2022-11-12T00:00:41.584Z,5.40
2022-11-12T00:03:27.763Z,5.40
2022-11-12T00:06:13.568Z,5.40
2022-11-12T00:08:59.245Z,5.40
2022-11-12T00:11:44.803Z,5.30
2022-11-12T00:14:33.305Z,5.30
2022-11-12T00:17:18.867Z,5.30
2022-11-12T00:20:05.005Z,5.30
2022-11-12T00:22:51.208Z,5.30
2022-11-12T00:25:37.577Z,5.30
2022-11-12T00:28:24.327Z,5.30
2022-11-12T00:31:13.122Z,5.30
2022-11-12T00:33:59.989Z,5.20
2022-11-12T00:36:47.471Z,5.20
2022-11-12T00:39:34.267Z,5.20
2022-11-12T00:42:22.582Z,5.20
2022-11-12T00:45:09.802Z,5.20
2022-11-12T00:47:56.999Z,5.20
2022-11-12T00:50:43.073Z,5.20
2022-11-12T00:53:28.814Z,5.20
2022-11-12T00:56:15.457Z,5.20
2022-11-12T00:59:03.666Z,5.10
2022-11-12T01:01:52.524Z,5.10
2022-11-12T01:04:38.828Z,5.10
2022-11-12T01:07:25.207Z,5.10
2022-11-12T01:10:14.009Z,5.10
2022-11-12T01:12:59.858Z,5.10
2022-11-12T01:15:46.129Z,5.10
2022-11-12T01:18:32.082Z,5.10
2022-11-12T01:21:20.543Z,5.00
2022-11-12T01:24:07.395Z,5.10
2022-11-12T01:26:53.476Z,5.00
2022-11-12T01:29:41.797Z,5.00
2022-11-12T01:32:29.975Z,5.00
2022-11-12T01:35:16.530Z,5.00
2022-11-12T01:38:02.978Z,5.00
2022-11-12T01:40:48.775Z,5.00
2022-11-12T01:43:37.178Z,5.00
2022-11-12T01:46:29.052Z,5.00
2022-11-12T01:49:21.742Z,5.00
2022-11-12T01:52:24.583Z,5.00
2022-11-12T01:55:15.445Z,4.90
2022-11-12T01:58:10.669Z,4.90
2022-11-12T02:00:57.628Z,4.90
2022-11-12T02:03:43.483Z,5.00
2022-11-12T02:06:30.712Z,4.90
2022-11-12T02:09:17.471Z,4.90
2022-11-12T02:12:03.708Z,4.80
2022-11-12T02:14:51.173Z,4.80
2022-11-12T02:17:37.449Z,4.80
2022-11-12T02:20:23.934Z,4.80
2022-11-12T02:23:09.961Z,4.80
2022-11-12T02:25:56.500Z,4.80
2022-11-12T02:28:42.794Z,4.80
2022-11-12T02:31:33.470Z,4.80
2022-11-12T02:34:20.041Z,4.80
2022-11-12T02:37:06.869Z,4.80
2022-11-12T02:39:53.391Z,4.70
2022-11-12T02:42:40.060Z,4.70
2022-11-12T02:45:34.366Z,4.70
2022-11-12T02:48:20.955Z,4.70
2022-11-12T02:51:07.602Z,4.70
2022-11-12T02:53:54.268Z,4.70
2022-11-12T02:56:40.947Z,4.70
2022-11-12T02:59:27.879Z,4.70
2022-11-12T03:02:14.805Z,4.60
2022-11-12T03:05:01.344Z,4.60
2022-11-12T03:07:48.431Z,4.60
2022-11-12T03:10:38.815Z,4.60
2022-11-12T03:13:27.065Z,4.50
2022-11-12T03:16:13.850Z,4.50
2022-11-12T03:19:02.586Z,4.60
2022-11-12T03:21:49.633Z,4.60
2022-11-12T03:24:36.814Z,4.60
2022-11-12T03:27:23.777Z,4.60
2022-11-12T03:30:11.120Z,4.50
2022-11-12T03:32:57.772Z,4.50
2022-11-12T03:35:43.994Z,4.50
2022-11-12T03:38:33.984Z,4.50
2022-11-12T03:41:20.040Z,4.50
2022-11-12T03:44:06.087Z,4.50
2022-11-12T03:46:52.071Z,4.40
2022-11-12T03:49:38.250Z,4.40
2022-11-12T03:52:24.392Z,4.40
2022-11-12T03:55:10.569Z,4.40
2022-11-12T03:57:57.816Z,4.40
2022-11-12T04:00:43.825Z,4.40
2022-11-12T04:03:30.473Z,4.30
2022-11-12T04:06:35.387Z,4.30
2022-11-12T04:10:17.649Z,4.30
2022-11-12T04:17:37.938Z,4.20
2022-11-12T04:20:42.146Z,4.20
2022-11-12T04:23:27.842Z,4.20
2022-11-12T04:26:25.586Z,4.20
2022-11-12T04:29:33.788Z,4.20
2022-11-12T04:32:23.005Z,4.20
2022-11-12T04:35:10.268Z,4.20
2022-11-12T04:37:57.152Z,4.10
2022-11-12T04:41:02.007Z,4.10
2022-11-12T04:44:06.691Z,4.10
2022-11-12T04:46:53.095Z,4.10
2022-11-12T04:49:39.320Z,4.10
2022-11-12T04:52:28.455Z,4.10
2022-11-12T04:55:17.437Z,4.10
2022-11-12T04:58:03.401Z,4.10
2022-11-12T05:00:51.002Z,4.10
2022-11-12T05:03:37.491Z,4.10
2022-11-12T05:06:41.614Z,4.10
2022-11-12T05:09:29.189Z,4.00
2022-11-12T05:12:15.322Z,4.00
2022-11-12T05:15:01.894Z,4.00
2022-11-12T05:17:47.993Z,4.00
2022-11-12T05:20:35.261Z,4.00
2022-11-12T05:23:21.416Z,4.00
2022-11-12T05:26:07.293Z,4.00
2022-11-12T05:28:54.149Z,4.00
2022-11-12T05:31:40.440Z,4.00
2022-11-12T05:34:26.251Z,3.90
2022-11-12T05:37:13.530Z,3.90
2022-11-12T05:40:00.233Z,3.90
2022-11-12T05:42:46.339Z,3.90
2022-11-12T05:45:32.154Z,3.90
2022-11-12T05:48:23.013Z,3.90
2022-11-12T05:51:14.122Z,3.90
2022-11-12T05:54:01.198Z,3.80
2022-11-12T05:56:47.623Z,3.80
2022-11-12T05:59:33.292Z,3.80
2022-11-12T06:02:19.553Z,3.80
2022-11-12T06:05:05.827Z,3.80
2022-11-12T06:07:51.786Z,3.80
2022-11-12T06:10:37.899Z,3.80
2022-11-12T06:13:25.231Z,3.80
2022-11-12T06:16:10.927Z,3.70
2022-11-12T06:19:03.289Z,3.70
2022-11-12T06:21:54.450Z,3.70
2022-11-12T06:24:43.331Z,3.70
2022-11-12T06:27:29.548Z,3.70
2022-11-12T06:30:35.420Z,3.70
2022-11-12T06:33:46.617Z,3.70
2022-11-12T06:36:32.720Z,3.70
2022-11-12T06:39:23.907Z,3.70
2022-11-12T06:42:09.175Z,3.60
2022-11-12T06:44:54.465Z,3.60
2022-11-12T06:47:40.016Z,3.60
2022-11-12T06:50:30.394Z,3.60
2022-11-12T06:53:16.078Z,3.70
2022-11-12T06:56:04.430Z,3.60
2022-11-12T06:58:49.841Z,3.60
2022-11-12T07:01:35.318Z,3.60
2022-11-12T07:04:21.134Z,3.60
2022-11-12T07:07:10.575Z,3.60
2022-11-12T07:09:56.880Z,3.60
2022-11-12T07:12:49.071Z,3.70
2022-11-12T07:15:38.562Z,3.70
2022-11-12T07:18:24.805Z,3.70
2022-11-12T07:21:16.191Z,3.70
2022-11-12T07:24:01.576Z,3.70
2022-11-12T07:26:47.827Z,3.70
2022-11-12T07:29:46.777Z,3.80
2022-11-12T07:32:37.304Z,3.80
2022-11-12T07:35:25.519Z,3.80
2022-11-12T07:38:11.210Z,3.90
2022-11-12T07:41:05.645Z,3.90
2022-11-12T07:43:53.719Z,4.00
2022-11-12T07:46:39.957Z,4.00
2022-11-12T07:49:25.901Z,4.10
2022-11-12T07:52:11.537Z,4.10
2022-11-12T07:54:57.937Z,4.20
2022-11-12T07:57:44.469Z,4.30
2022-11-12T08:00:30.820Z,4.30
2022-11-12T08:03:16.621Z,4.30
2022-11-12T08:06:02.046Z,4.40
2022-11-12T08:08:53.005Z,4.50
2022-11-12T08:11:38.561Z,4.60
2022-11-12T08:14:24.699Z,4.70
2022-11-12T08:17:10.398Z,4.80
2022-11-12T08:19:55.907Z,4.80
2022-11-12T08:22:46.384Z,5.00
2022-11-12T08:25:34.644Z,5.10
2022-11-12T08:28:20.236Z,5.20
2022-11-12T08:31:19.927Z,5.30
2022-11-12T08:34:11.965Z,5.70
2022-11-12T08:36:57.764Z,6.30
2022-11-12T08:39:44.143Z,7.10
2022-11-12T08:42:29.545Z,7.90
2022-11-12T08:45:16.265Z,8.70
2022-11-12T08:48:04.514Z,9.40
2022-11-12T08:50:52.165Z,10.10
2022-11-12T08:53:41.853Z,10.80
2022-11-12T08:56:27.395Z,11.40
2022-11-12T08:59:12.995Z,12.00
2022-11-12T09:02:05.609Z,12.40
2022-11-12T09:05:14.982Z,12.90
2022-11-12T09:08:14.168Z,13.40
2022-11-12T09:11:21.759Z,14.10
2022-11-12T09:14:07.243Z,14.80
2022-11-12T09:16:52.717Z,15.40
2022-11-12T09:19:42.671Z,15.70
2022-11-12T09:22:28.281Z,15.90
2022-11-12T09:25:13.823Z,16.30
2022-11-12T09:28:06.233Z,16.70
2022-11-12T09:30:53.463Z,17.20
2022-11-12T09:33:39.093Z,17.60
2022-11-12T09:36:24.486Z,17.80
2022-11-12T09:39:09.849Z,17.90
2022-11-12T09:42:01.730Z,17.70
2022-11-12T09:45:14.412Z,17.80
2022-11-12T09:48:06.491Z,17.90
2022-11-12T09:51:06.687Z,18.10
2022-11-12T09:53:56.696Z,18.10
2022-11-12T09:56:41.896Z,17.90
2022-11-12T09:59:31.328Z,18.00
2022-11-12T10:02:37.613Z,18.10
2022-11-12T10:05:34.362Z,18.30
2022-11-12T10:08:19.936Z,18.40
2022-11-12T10:12:07.386Z,18.60
2022-11-12T10:15:22.111Z,18.80
2022-11-12T10:18:24.507Z,18.60
2022-11-12T10:21:40.815Z,18.70
2022-11-12T10:24:33.337Z,18.90
2022-11-12T10:27:21.557Z,19.40
2022-11-12T10:30:13.425Z,19.60
2022-11-12T10:32:58.992Z,19.70
2022-11-12T10:35:44.470Z,19.50
2022-11-12T10:38:32.488Z,19.40
2022-11-12T10:41:19.566Z,19.40
2022-11-12T10:44:07.156Z,19.50
2022-11-12T10:47:22.947Z,19.40
2022-11-12T10:50:21.870Z,19.20
2022-11-12T10:53:14.253Z,19.10
2022-11-12T10:56:01.945Z,19.00
2022-11-12T10:59:20.599Z,19.00
2022-11-12T11:02:16.863Z,19.10
2022-11-12T11:05:28.174Z,19.30
2022-11-12T11:08:13.765Z,19.60
2022-11-12T11:11:18.560Z,20.20
2022-11-12T11:14:22.590Z,20.30
2022-11-12T11:17:17.287Z,20.30
2022-11-12T11:20:13.390Z,20.30
2022-11-12T11:23:28.941Z,20.30
2022-11-12T11:26:49.791Z,20.40
2022-11-12T11:30:02.480Z,20.40
2022-11-12T11:32:54.147Z,20.40
2022-11-12T11:35:42.361Z,20.60
2022-11-12T11:38:52.714Z,20.60
2022-11-12T11:42:01.306Z,20.60
2022-11-12T11:44:59.067Z,20.60
2022-11-12T11:48:02.305Z,20.70
2022-11-12T11:51:11.941Z,20.70
2022-11-12T11:54:05.887Z,20.60
2022-11-12T11:56:53.210Z,20.70
2022-11-12T11:59:44.725Z,20.80
2022-11-12T12:02:48.336Z,21.10
2022-11-12T12:05:43.900Z,21.10
2022-11-12T12:08:50.995Z,21.20
2022-11-12T12:11:54.645Z,21.50
2022-11-12T12:14:52.389Z,21.80
2022-11-12T12:18:05.078Z,21.80
2022-11-12T12:20:53.888Z,21.90
2022-11-12T12:24:27.987Z,22.00
2022-11-12T12:27:20.420Z,22.30
2022-11-12T12:30:18.799Z,22.60
2022-11-12T12:33:36.105Z,22.40
2022-11-12T12:36:33.979Z,22.70
2022-11-12T12:39:49.873Z,22.90
2022-11-12T12:42:45.104Z,23.10
2022-11-12T12:45:43.282Z,23.10
2022-11-12T12:48:34.246Z,23.20
2022-11-12T12:51:22.882Z,23.10
2022-11-12T12:54:49.652Z,23.00
2022-11-12T12:57:48.035Z,22.90
2022-11-12T13:00:38.850Z,22.80
2022-11-12T13:03:44.828Z,22.80
2022-11-12T13:06:39.718Z,22.90
2022-11-12T13:09:27.357Z,23.00
2022-11-12T13:12:17.796Z,23.20
2022-11-12T13:15:19.083Z,23.20
2022-11-12T13:18:12.927Z,23.20
2022-11-12T13:21:16.986Z,23.20
2022-11-12T13:24:14.963Z,23.30
2022-11-12T13:27:07.205Z,23.50
2022-11-12T13:29:54.748Z,23.60
2022-11-12T13:32:46.933Z,23.60
2022-11-12T13:35:41.925Z,23.40
2022-11-12T13:38:28.378Z,23.50
2022-11-12T13:41:43.254Z,23.60
2022-11-12T13:44:30.009Z,23.90
2022-11-12T13:47:20.845Z,24.10
2022-11-12T13:50:09.816Z,24.10
2022-11-12T13:52:55.151Z,24.30
2022-11-12T13:56:00.291Z,24.60
2022-11-12T13:58:48.916Z,25.00
2022-11-12T14:01:37.126Z,25.30
2022-11-12T14:08:08.985Z,25.70
2022-11-12T14:11:28.003Z,25.90
2022-11-12T14:14:43.202Z,26.10
2022-11-12T14:18:06.650Z,26.40
2022-11-12T14:20:52.658Z,26.30
2022-11-12T14:23:38.386Z,26.30
2022-11-12T14:26:43.312Z,26.50
2022-11-12T14:29:34.600Z,26.70
2022-11-12T14:32:21.729Z,26.70
2022-11-12T14:35:28.308Z,26.60
2022-11-12T14:38:23.024Z,26.60
2022-11-12T14:41:11.413Z,26.60
2022-11-12T14:44:12.567Z,26.50
2022-11-12T14:46:59.442Z,26.50
2022-11-12T14:49:47.902Z,26.50
2022-11-12T14:52:40.337Z,26.40
2022-11-12T14:55:33.498Z,26.20
2022-11-12T14:58:32.325Z,26.20
2022-11-12T15:02:14.005Z,26.00
2022-11-12T15:04:53.661Z,24.80
2022-11-12T15:07:53.995Z,23.20
2022-11-12T15:10:44.264Z,22.00
2022-11-12T15:13:39.130Z,21.20
2022-11-12T15:16:28.587Z,20.40
2022-11-12T15:19:15.523Z,19.50
2022-11-12T15:22:03.062Z,18.70
2022-11-12T15:24:49.587Z,18.10
2022-11-12T15:27:43.863Z,17.40
2022-11-12T15:30:36.510Z,16.90
2022-11-12T15:33:22.848Z,16.50
2022-11-12T15:36:18.063Z,16.20
2022-11-12T15:39:04.199Z,15.90
2022-11-12T15:41:57.404Z,15.70
2022-11-12T15:44:42.910Z,15.40
2022-11-12T15:47:30.401Z,15.20
2022-11-12T15:50:25.145Z,15.00
2022-11-12T15:53:11.303Z,14.70
2022-11-12T15:55:56.911Z,14.60
2022-11-12T15:58:42.504Z,14.40
2022-11-12T16:01:28.215Z,14.20
2022-11-12T16:04:13.436Z,14.00
2022-11-12T16:07:00.486Z,13.80
2022-11-12T16:09:47.164Z,13.60
2022-11-12T16:12:32.348Z,13.50
2022-11-12T16:15:25.549Z,13.30
2022-11-12T16:18:12.058Z,13.20
2022-11-12T16:21:50.761Z,13.00
2022-11-12T16:25:10.394Z,12.90
2022-11-12T16:28:01.669Z,12.70
2022-11-12T16:30:48.290Z,12.60
2022-11-12T16:33:35.054Z,12.50
2022-11-12T16:36:23.841Z,12.40
2022-11-12T16:39:14.806Z,12.30
2022-11-12T16:42:03.576Z,12.20
2022-11-12T16:45:07.204Z,12.10
2022-11-12T16:48:02.807Z,12.00
2022-11-12T16:50:50.457Z,11.90
2022-11-12T16:53:36.015Z,11.90
2022-11-12T16:56:22.678Z,11.80
2022-11-12T17:02:23.762Z,11.60
2022-11-12T17:05:21.058Z,11.50
2022-11-12T17:08:11.231Z,11.40
2022-11-12T17:10:57.339Z,11.30
2022-11-12T17:13:44.046Z,11.30
2022-11-12T17:16:30.650Z,11.20
2022-11-12T17:19:16.856Z,11.10
2022-11-12T17:22:02.929Z,11.10
2022-11-12T17:25:08.082Z,11.00
2022-11-12T17:28:00.280Z,10.90
2022-11-12T17:30:48.918Z,10.90
2022-11-12T17:33:40.072Z,10.80
2022-11-12T17:36:31.855Z,10.70
2022-11-12T17:39:17.732Z,10.60
2022-11-12T17:42:03.065Z,10.60
2022-11-12T17:44:48.916Z,10.50
2022-11-12T17:47:39.310Z,10.40
2022-11-12T17:50:26.026Z,10.40
2022-11-12T17:53:12.134Z,10.30
2022-11-12T17:56:00.217Z,10.30
2022-11-12T17:58:47.894Z,10.30
2022-11-12T18:02:11.259Z,10.20
2022-11-12T18:05:10.610Z,10.10
2022-11-12T18:07:59.359Z,10.10
2022-11-12T18:10:46.518Z,10.00
2022-11-12T18:13:35.556Z,10.00
2022-11-12T18:16:33.290Z,10.00
2022-11-12T18:19:19.437Z,10.00
2022-11-12T18:22:05.287Z,9.90
2022-11-12T18:24:57.249Z,9.90
2022-11-12T18:27:45.814Z,9.80
2022-11-12T18:30:38.909Z,9.80
2022-11-12T18:33:42.549Z,9.70
2022-11-12T18:36:38.290Z,9.60
2022-11-12T18:39:30.004Z,9.60
2022-11-12T18:42:15.615Z,9.60
2022-11-12T18:45:10.220Z,9.50
2022-11-12T18:47:56.255Z,9.50
2022-11-12T18:50:41.840Z,9.50
2022-11-12T18:53:29.121Z,9.40
2022-11-12T18:56:18.051Z,9.40
2022-11-12T18:59:04.201Z,9.40
2022-11-12T19:01:50.144Z,9.40
2022-11-12T19:04:37.882Z,9.30
2022-11-12T19:07:26.354Z,9.30
2022-11-12T19:10:15.145Z,9.30
2022-11-12T19:13:03.972Z,9.30
2022-11-12T19:15:51.053Z,9.30
2022-11-12T19:18:37.681Z,9.30
2022-11-12T19:21:25.622Z,9.30
2022-11-12T19:24:11.070Z,9.30
2022-11-12T19:27:01.104Z,9.20
2022-11-12T19:29:49.930Z,9.20
2022-11-12T19:32:35.814Z,9.20
2022-11-12T19:35:21.090Z,9.20
2022-11-12T19:38:06.778Z,9.20
2022-11-12T19:40:52.398Z,9.10
2022-11-12T19:43:40.012Z,9.10
2022-11-12T19:46:25.988Z,9.10
2022-11-12T19:49:11.474Z,9.00
2022-11-12T19:51:56.843Z,9.10
2022-11-12T19:54:42.455Z,9.00
2022-11-12T19:57:29.024Z,9.00
2022-11-12T20:00:15.161Z,9.00
2022-11-12T20:03:00.451Z,9.00
2022-11-12T20:05:45.938Z,9.00
2022-11-12T20:08:31.816Z,8.90
2022-11-12T20:11:18.815Z,8.90
2022-11-12T20:14:04.377Z,8.90
2022-11-12T20:16:50.629Z,8.90
2022-11-12T20:19:36.191Z,8.90
2022-11-12T20:22:21.699Z,8.80
2022-11-12T20:25:07.037Z,8.80
2022-11-12T20:27:52.330Z,8.80
2022-11-12T20:30:38.808Z,8.80
2022-11-12T20:33:24.403Z,8.80
2022-11-12T20:36:13.010Z,8.70
2022-11-12T20:38:58.833Z,8.70
2022-11-12T20:41:44.062Z,8.70
2022-11-12T20:44:30.761Z,8.70
2022-11-12T20:47:16.002Z,8.70
2022-11-12T20:50:01.516Z,8.60
2022-11-12T20:52:47.181Z,8.60
2022-11-12T20:55:32.662Z,8.60
2022-11-12T20:58:18.148Z,8.60
2022-11-12T21:01:04.980Z,8.60
2022-11-12T21:03:50.980Z,8.60
2022-11-12T21:06:36.829Z,8.60
2022-11-12T21:09:22.432Z,8.50
2022-11-12T21:12:07.948Z,8.60
2022-11-12T21:14:53.539Z,8.60
2022-11-12T21:17:39.012Z,8.50
2022-11-12T21:20:24.490Z,8.50
2022-11-12T21:23:10.555Z,8.50
2022-11-12T21:26:02.532Z,8.50
2022-11-12T21:28:53.096Z,8.50
2022-11-12T21:31:38.885Z,8.50
2022-11-12T21:34:24.051Z,8.50
2022-11-12T21:37:09.641Z,8.50
2022-11-12T21:39:55.211Z,8.50
2022-11-12T21:42:45.026Z,8.50
2022-11-12T21:45:30.164Z,8.40
2022-11-12T21:48:15.866Z,8.40
2022-11-12T21:51:12.814Z,8.40
2022-11-12T21:54:02.075Z,8.40
2022-11-12T21:56:47.709Z,8.40
2022-11-12T21:59:33.395Z,8.30
2022-11-12T22:02:18.903Z,8.30
2022-11-12T22:05:04.823Z,8.30
2022-11-12T22:07:51.605Z,8.30
2022-11-12T22:10:36.708Z,8.20
2022-11-12T22:13:27.209Z,8.20
2022-11-12T22:16:20.728Z,8.20
2022-11-12T22:19:06.151Z,8.20
2022-11-12T22:21:51.815Z,8.10
2022-11-12T22:24:37.231Z,8.10
2022-11-12T22:27:23.690Z,8.00
2022-11-12T22:30:10.198Z,8.00
2022-11-12T22:32:56.133Z,8.00
2022-11-12T22:35:41.618Z,7.90
2022-11-12T22:38:27.391Z,7.90
2022-11-12T22:41:15.582Z,7.80
2022-11-12T22:44:02.375Z,7.80
2022-11-12T22:46:47.859Z,7.70
2022-11-12T22:49:33.708Z,7.70
2022-11-12T22:52:18.988Z,7.70
2022-11-12T22:55:05.132Z,7.70
2022-11-12T22:57:50.805Z,7.60
2022-11-12T23:00:36.372Z,7.60
2022-11-12T23:03:21.584Z,7.60
2022-11-12T23:06:06.959Z,7.60
2022-11-12T23:08:56.635Z,7.50
2022-11-12T23:11:42.394Z,7.50
2022-11-12T23:14:27.881Z,7.50
2022-11-12T23:17:13.657Z,7.50
2022-11-12T23:19:59.166Z,7.50
2022-11-12T23:22:44.741Z,7.40
2022-11-12T23:25:32.989Z,7.40
2022-11-12T23:28:18.162Z,7.40
2022-11-12T23:31:05.135Z,7.40
2022-11-12T23:33:54.994Z,7.40
2022-11-12T23:36:40.875Z,7.30
2022-11-12T23:39:26.426Z,7.30
2022-11-12T23:42:11.892Z,7.30
2022-11-12T23:44:57.581Z,7.30
2022-11-12T23:47:42.910Z,7.30
2022-11-12T23:50:28.604Z,7.30
2022-11-12T23:53:14.610Z,7.20
2022-11-12T23:55:59.985Z,7.20
2022-11-12T23:58:45.894Z,7.20
